sensor_id;sensor_type;location;lat;lon;timestamp;P1;durP1;ratioP1;P2;durP2;ratioP2
45863;SDS011;31579;52.354;16.974;2023-01-25T00:03:21;94.10;;;42.80;;
45863;SDS011;31579;52.354;16.974;2023-01-25T00:08:21;83.50;;;39.90;;
45863;SDS011;31579;52.354;16.974;2023-01-25T00:13:21;83.50;;;39.90;;
45863;SDS011;31579;52.354;16.974;2023-01-25T00:18:21;94.70;;;45.80;;
45863;SDS011;31579;52.354;16.974;2023-01-25T00:23:21;94.70;;;45.80;;
45863;SDS011;31579;52.354;16.974;2023-01-25T00:28:21;96.40;;;44.00;;
45863;SDS011;31579;52.354;16.974;2023-01-25T00:43:21;90.30;;;42.20;;
45863;SDS011;31579;52.354;16.974;2023-01-25T00:48:21;89.70;;;41.10;;
45863;SDS011;31579;52.354;16.974;2023-01-25T00:53:32;89.70;;;41.10;;
45863;SDS011;31579;52.354;16.974;2023-01-25T00:58:30;92.90;;;44.70;;
45863;SDS011;31579;52.354;16.974;2023-01-25T01:03:30;92.90;;;44.70;;
45863;SDS011;31579;52.354;16.974;2023-01-25T01:08:32;89.80;;;43.40;;
45863;SDS011;31579;52.354;16.974;2023-01-25T01:13:30;89.80;;;43.40;;
45863;SDS011;31579;52.354;16.974;2023-01-25T01:23:31;87.70;;;41.20;;
45863;SDS011;31579;52.354;16.974;2023-01-25T01:28:31;90.60;;;43.00;;
45863;SDS011;31579;52.354;16.974;2023-01-25T01:33:30;90.60;;;43.00;;
45863;SDS011;31579;52.354;16.974;2023-01-25T01:38:31;94.40;;;43.10;;
45863;SDS011;31579;52.354;16.974;2023-01-25T01:43:30;94.40;;;43.10;;
45863;SDS011;31579;52.354;16.974;2023-01-25T01:55:22;93.60;;;43.90;;
45863;SDS011;31579;52.354;16.974;2023-01-25T02:00:26;93.60;;;43.90;;
45863;SDS011;31579;52.354;16.974;2023-01-25T02:05:29;86.50;;;42.70;;
45863;SDS011;31579;52.354;16.974;2023-01-25T02:10:23;86.50;;;42.70;;
45863;SDS011;31579;52.354;16.974;2023-01-25T02:16:38;102.80;;;45.20;;
45863;SDS011;31579;52.354;16.974;2023-01-25T02:25:19;118.00;;;51.10;;
45863;SDS011;31579;52.354;16.974;2023-01-25T02:30:19;118.00;;;51.10;;
45863;SDS011;31579;52.354;16.974;2023-01-25T02:35:21;97.00;;;44.00;;
45863;SDS011;31579;52.354;16.974;2023-01-25T02:40:18;97.00;;;44.00;;
45863;SDS011;31579;52.354;16.974;2023-01-25T02:45:18;95.30;;;43.80;;
45863;SDS011;31579;52.354;16.974;2023-01-25T02:50:18;95.30;;;43.80;;
45863;SDS011;31579;52.354;16.974;2023-01-25T02:55:18;95.80;;;44.30;;
45863;SDS011;31579;52.354;16.974;2023-01-25T03:00:19;95.80;;;44.30;;
45863;SDS011;31579;52.354;16.974;2023-01-25T03:05:18;101.90;;;45.30;;
45863;SDS011;31579;52.354;16.974;2023-01-25T03:10:18;101.90;;;45.30;;
45863;SDS011;31579;52.354;16.974;2023-01-25T03:15:19;96.90;;;43.40;;
45863;SDS011;31579;52.354;16.974;2023-01-25T03:20:23;96.90;;;43.40;;
45863;SDS011;31579;52.354;16.974;2023-01-25T03:25:18;53.40;;;24.00;;
45863;SDS011;31579;52.354;16.974;2023-01-25T03:30:18;53.40;;;24.00;;
45863;SDS011;31579;52.354;16.974;2023-01-25T03:35:18;45.50;;;22.00;;
45863;SDS011;31579;52.354;16.974;2023-01-25T03:40:19;45.50;;;22.00;;
45863;SDS011;31579;52.354;16.974;2023-01-25T03:45:19;51.70;;;25.00;;
45863;SDS011;31579;52.354;16.974;2023-01-25T03:50:19;51.70;;;25.00;;
45863;SDS011;31579;52.354;16.974;2023-01-25T03:55:19;52.30;;;24.20;;
45863;SDS011;31579;52.354;16.974;2023-01-25T04:00:21;52.30;;;24.20;;
45863;SDS011;31579;52.354;16.974;2023-01-25T04:05:19;50.50;;;23.40;;
45863;SDS011;31579;52.354;16.974;2023-01-25T04:10:19;50.50;;;23.40;;
45863;SDS011;31579;52.354;16.974;2023-01-25T04:15:19;49.70;;;23.80;;
45863;SDS011;31579;52.354;16.974;2023-01-25T04:20:19;49.70;;;23.80;;
45863;SDS011;31579;52.354;16.974;2023-01-25T04:25:19;52.40;;;23.20;;
45863;SDS011;31579;52.354;16.974;2023-01-25T04:30:19;52.40;;;23.20;;
45863;SDS011;31579;52.354;16.974;2023-01-25T04:35:19;52.40;;;24.20;;
45863;SDS011;31579;52.354;16.974;2023-01-25T04:40:19;52.40;;;24.20;;
45863;SDS011;31579;52.354;16.974;2023-01-25T04:45:19;51.40;;;24.20;;
45863;SDS011;31579;52.354;16.974;2023-01-25T04:50:19;51.40;;;24.20;;
45863;SDS011;31579;52.354;16.974;2023-01-25T04:55:19;57.70;;;25.40;;
45863;SDS011;31579;52.354;16.974;2023-01-25T05:00:19;57.70;;;25.40;;
45863;SDS011;31579;52.354;16.974;2023-01-25T05:05:19;55.10;;;25.30;;
45863;SDS011;31579;52.354;16.974;2023-01-25T05:10:19;55.10;;;25.30;;
45863;SDS011;31579;52.354;16.974;2023-01-25T05:15:19;58.90;;;24.80;;
45863;SDS011;31579;52.354;16.974;2023-01-25T05:20:19;58.90;;;24.80;;
45863;SDS011;31579;52.354;16.974;2023-01-25T05:25:19;54.30;;;25.30;;
45863;SDS011;31579;52.354;16.974;2023-01-25T05:30:19;54.30;;;25.30;;
45863;SDS011;31579;52.354;16.974;2023-01-25T05:35:19;50.10;;;23.10;;
45863;SDS011;31579;52.354;16.974;2023-01-25T05:40:19;50.10;;;23.10;;
45863;SDS011;31579;52.354;16.974;2023-01-25T05:45:19;54.00;;;25.00;;
45863;SDS011;31579;52.354;16.974;2023-01-25T05:50:19;54.00;;;25.00;;
45863;SDS011;31579;52.354;16.974;2023-01-25T05:55:19;50.60;;;23.40;;
45863;SDS011;31579;52.354;16.974;2023-01-25T06:00:19;50.60;;;23.40;;
45863;SDS011;31579;52.354;16.974;2023-01-25T06:05:19;42.80;;;20.90;;
45863;SDS011;31579;52.354;16.974;2023-01-25T06:10:19;42.80;;;20.90;;
45863;SDS011;31579;52.354;16.974;2023-01-25T06:15:19;42.80;;;20.50;;
45863;SDS011;31579;52.354;16.974;2023-01-25T06:24:03;42.90;;;20.20;;
45863;SDS011;31579;52.354;16.974;2023-01-25T06:29:04;42.90;;;20.20;;
45863;SDS011;31579;52.354;16.974;2023-01-25T06:34:03;40.70;;;19.30;;
45863;SDS011;31579;52.354;16.974;2023-01-25T06:39:03;40.70;;;19.30;;
45863;SDS011;31579;52.354;16.974;2023-01-25T06:44:03;18.50;;;9.00;;
45863;SDS011;31579;52.354;16.974;2023-01-25T06:49:03;18.50;;;9.00;;
45863;SDS011;31579;52.354;16.974;2023-01-25T06:54:03;28.90;;;13.90;;
45863;SDS011;31579;52.354;16.974;2023-01-25T06:59:03;28.90;;;13.90;;
45863;SDS011;31579;52.354;16.974;2023-01-25T07:05:20;30.80;;;14.70;;
45863;SDS011;31579;52.354;16.974;2023-01-25T07:10:20;30.80;;;14.70;;
45863;SDS011;31579;52.354;16.974;2023-01-25T07:15:20;29.90;;;14.10;;
45863;SDS011;31579;52.354;16.974;2023-01-25T07:17:25;29.90;;;14.10;;
45863;SDS011;31579;52.354;16.974;2023-01-25T07:22:23;29.90;;;14.10;;
45863;SDS011;31579;52.354;16.974;2023-01-25T07:27:23;26.70;;;13.30;;
45863;SDS011;31579;52.354;16.974;2023-01-25T07:29:06;26.70;;;13.30;;
45863;SDS011;31579;52.354;16.974;2023-01-25T07:34:04;31.80;;;14.80;;
45863;SDS011;31579;52.354;16.974;2023-01-25T07:39:04;31.80;;;14.80;;
45863;SDS011;31579;52.354;16.974;2023-01-25T07:44:04;39.80;;;18.90;;
45863;SDS011;31579;52.354;16.974;2023-01-25T07:49:04;39.80;;;18.90;;
45863;SDS011;31579;52.354;16.974;2023-01-25T07:54:04;24.50;;;11.90;;
45863;SDS011;31579;52.354;16.974;2023-01-25T07:59:04;24.50;;;11.90;;
45863;SDS011;31579;52.354;16.974;2023-01-25T08:04:04;17.40;;;8.60;;
45863;SDS011;31579;52.354;16.974;2023-01-25T08:09:07;17.40;;;8.60;;
45863;SDS011;31579;52.354;16.974;2023-01-25T08:14:04;19.30;;;9.90;;
45863;SDS011;31579;52.354;16.974;2023-01-25T08:19:04;19.30;;;9.90;;
45863;SDS011;31579;52.354;16.974;2023-01-25T08:24:04;20.10;;;10.20;;
45863;SDS011;31579;52.354;16.974;2023-01-25T08:35:57;21.70;;;10.70;;
45863;SDS011;31579;52.354;16.974;2023-01-25T08:41:04;21.70;;;10.70;;
45863;SDS011;31579;52.354;16.974;2023-01-25T08:45:57;21.10;;;11.00;;
45863;SDS011;31579;52.354;16.974;2023-01-25T08:50:57;21.10;;;11.00;;
45863;SDS011;31579;52.354;16.974;2023-01-25T09:05:57;23.60;;;11.90;;
45863;SDS011;31579;52.354;16.974;2023-01-25T09:16:01;23.00;;;11.20;;
45863;SDS011;31579;52.354;16.974;2023-01-25T09:20:57;23.00;;;11.20;;
45863;SDS011;31579;52.354;16.974;2023-01-25T09:26:02;27.50;;;13.80;;
45863;SDS011;31579;52.354;16.974;2023-01-25T09:30:58;27.50;;;13.80;;
45863;SDS011;31579;52.354;16.974;2023-01-25T09:35:57;27.80;;;14.30;;
45863;SDS011;31579;52.354;16.974;2023-01-25T09:46:01;29.10;;;14.70;;
45863;SDS011;31579;52.354;16.974;2023-01-25T09:55:58;22.60;;;11.70;;
45863;SDS011;31579;52.354;16.974;2023-01-25T10:01:08;22.60;;;11.70;;
45863;SDS011;31579;52.354;16.974;2023-01-25T10:05:59;24.70;;;13.20;;
45863;SDS011;31579;52.354;16.974;2023-01-25T10:10:59;24.70;;;13.20;;
45863;SDS011;31579;52.354;16.974;2023-01-25T10:16:02;23.50;;;13.20;;
45863;SDS011;31579;52.354;16.974;2023-01-25T10:26:20;28.90;;;14.50;;
45863;SDS011;31579;52.354;16.974;2023-01-25T10:36:08;28.30;;;14.70;;
45863;SDS011;31579;52.354;16.974;2023-01-25T10:51:06;29.20;;;15.00;;
45863;SDS011;31579;52.354;16.974;2023-01-25T11:01:07;27.80;;;14.20;;
45863;SDS011;31579;52.354;16.974;2023-01-25T11:06:07;26.50;;;13.70;;
45863;SDS011;31579;52.354;16.974;2023-01-25T11:25:55;30.80;;;14.00;;
45863;SDS011;31579;52.354;16.974;2023-01-25T11:30:55;30.80;;;14.00;;
45863;SDS011;31579;52.354;16.974;2023-01-25T11:41:05;28.00;;;14.60;;
45863;SDS011;31579;52.354;16.974;2023-01-25T11:50:59;28.20;;;13.60;;
45863;SDS011;31579;52.354;16.974;2023-01-25T11:55:58;32.20;;;15.60;;
45863;SDS011;31579;52.354;16.974;2023-01-25T12:05:59;30.30;;;14.50;;
45863;SDS011;31579;52.354;16.974;2023-01-25T12:16:00;29.60;;;13.80;;
45863;SDS011;31579;52.354;16.974;2023-01-25T12:51:23;31.00;;;14.20;;
45863;SDS011;31579;52.354;16.974;2023-01-25T12:56:32;32.30;;;15.50;;
45863;SDS011;31579;52.354;16.974;2023-01-25T13:11:28;29.00;;;14.50;;
45863;SDS011;31579;52.354;16.974;2023-01-25T13:23:11;35.60;;;18.20;;
45863;SDS011;31579;52.354;16.974;2023-01-25T13:37:20;35.10;;;16.80;;
45863;SDS011;31579;52.354;16.974;2023-01-25T13:42:21;36.10;;;17.90;;
45863;SDS011;31579;52.354;16.974;2023-01-25T13:46:07;36.10;;;17.90;;
45863;SDS011;31579;52.354;16.974;2023-01-25T13:51:09;36.10;;;17.90;;
45863;SDS011;31579;52.354;16.974;2023-01-25T13:56:20;39.40;;;18.10;;
45863;SDS011;31579;52.354;16.974;2023-01-25T14:01:06;39.40;;;18.10;;
45863;SDS011;31579;52.354;16.974;2023-01-25T14:06:05;37.80;;;17.00;;
45863;SDS011;31579;52.354;16.974;2023-01-25T14:11:05;37.80;;;17.00;;
45863;SDS011;31579;52.354;16.974;2023-01-25T14:16:07;36.00;;;16.90;;
45863;SDS011;31579;52.354;16.974;2023-01-25T14:31:05;38.10;;;17.90;;
45863;SDS011;31579;52.354;16.974;2023-01-25T14:36:06;40.10;;;18.20;;
45863;SDS011;31579;52.354;16.974;2023-01-25T14:41:09;40.10;;;18.20;;
45863;SDS011;31579;52.354;16.974;2023-01-25T14:56:11;47.50;;;20.20;;
45863;SDS011;31579;52.354;16.974;2023-01-25T15:01:05;47.50;;;20.20;;
45863;SDS011;31579;52.354;16.974;2023-01-25T15:06:05;47.50;;;20.50;;
45863;SDS011;31579;52.354;16.974;2023-01-25T15:11:20;47.50;;;20.50;;
45863;SDS011;31579;52.354;16.974;2023-01-25T15:16:05;50.50;;;21.80;;
45863;SDS011;31579;52.354;16.974;2023-01-25T15:21:09;50.50;;;21.80;;
45863;SDS011;31579;52.354;16.974;2023-01-25T15:26:24;53.20;;;22.40;;
45863;SDS011;31579;52.354;16.974;2023-01-25T15:31:05;53.20;;;22.40;;
45863;SDS011;31579;52.354;16.974;2023-01-25T15:36:07;56.40;;;22.70;;
45863;SDS011;31579;52.354;16.974;2023-01-25T15:41:05;56.40;;;22.70;;
45863;SDS011;31579;52.354;16.974;2023-01-25T15:46:13;59.40;;;24.80;;
45863;SDS011;31579;52.354;16.974;2023-01-25T15:51:05;59.40;;;24.80;;
45863;SDS011;31579;52.354;16.974;2023-01-25T15:56:07;61.90;;;25.30;;
45863;SDS011;31579;52.354;16.974;2023-01-25T16:01:05;61.90;;;25.30;;
45863;SDS011;31579;52.354;16.974;2023-01-25T16:06:18;68.50;;;28.70;;
45863;SDS011;31579;52.354;16.974;2023-01-25T16:11:05;68.50;;;28.70;;
45863;SDS011;31579;52.354;16.974;2023-01-25T16:16:12;73.80;;;29.00;;
45863;SDS011;31579;52.354;16.974;2023-01-25T16:21:05;73.80;;;29.00;;
45863;SDS011;31579;52.354;16.974;2023-01-25T16:31:12;66.00;;;28.70;;
45863;SDS011;31579;52.354;16.974;2023-01-25T16:36:13;71.50;;;29.00;;
45863;SDS011;31579;52.354;16.974;2023-01-25T16:46:03;71.50;;;29.00;;
45863;SDS011;31579;52.354;16.974;2023-01-25T16:51:03;71.50;;;29.00;;
45863;SDS011;31579;52.354;16.974;2023-01-25T16:56:03;75.10;;;29.00;;
45863;SDS011;31579;52.354;16.974;2023-01-25T17:01:07;75.10;;;29.00;;
45863;SDS011;31579;52.354;16.974;2023-01-25T17:06:04;74.30;;;29.90;;
45863;SDS011;31579;52.354;16.974;2023-01-25T17:11:04;74.30;;;29.90;;
45863;SDS011;31579;52.354;16.974;2023-01-25T17:16:03;97.00;;;38.50;;
45863;SDS011;31579;52.354;16.974;2023-01-25T17:24:03;72.40;;;29.20;;
45863;SDS011;31579;52.354;16.974;2023-01-25T17:29:03;72.40;;;29.20;;
45863;SDS011;31579;52.354;16.974;2023-01-25T17:34:04;64.60;;;26.50;;
45863;SDS011;31579;52.354;16.974;2023-01-25T17:43:05;81.80;;;33.10;;
45863;SDS011;31579;52.354;16.974;2023-01-25T17:48:06;81.80;;;33.10;;
45863;SDS011;31579;52.354;16.974;2023-01-25T17:53:05;81.00;;;31.90;;
45863;SDS011;31579;52.354;16.974;2023-01-25T17:54:07;81.00;;;31.90;;
45863;SDS011;31579;52.354;16.974;2023-01-25T17:59:05;81.00;;;31.90;;
45863;SDS011;31579;52.354;16.974;2023-01-25T18:04:06;74.10;;;30.70;;
45863;SDS011;31579;52.354;16.974;2023-01-25T18:06:57;74.10;;;30.70;;
45863;SDS011;31579;52.354;16.974;2023-01-25T18:11:56;83.60;;;33.30;;
45863;SDS011;31579;52.354;16.974;2023-01-25T18:16:55;83.60;;;33.30;;
45863;SDS011;31579;52.354;16.974;2023-01-25T18:21:55;88.20;;;34.40;;
45863;SDS011;31579;52.354;16.974;2023-01-25T18:31:55;93.20;;;37.00;;
45863;SDS011;31579;52.354;16.974;2023-01-25T18:36:55;93.20;;;37.00;;
45863;SDS011;31579;52.354;16.974;2023-01-25T18:43:40;95.20;;;37.20;;
45863;SDS011;31579;52.354;16.974;2023-01-25T18:48:40;95.20;;;37.20;;
45863;SDS011;31579;52.354;16.974;2023-01-25T18:53:40;96.80;;;36.50;;
45863;SDS011;31579;52.354;16.974;2023-01-25T18:58:40;96.80;;;36.50;;
45863;SDS011;31579;52.354;16.974;2023-01-25T19:04:58;108.60;;;41.10;;
45863;SDS011;31579;52.354;16.974;2023-01-25T19:09:58;108.60;;;41.10;;
45863;SDS011;31579;52.354;16.974;2023-01-25T19:14:58;87.10;;;34.00;;
45863;SDS011;31579;52.354;16.974;2023-01-25T19:19:58;87.10;;;34.00;;
45863;SDS011;31579;52.354;16.974;2023-01-25T19:24:58;89.40;;;36.00;;
45863;SDS011;31579;52.354;16.974;2023-01-25T19:29:58;89.40;;;36.00;;
45863;SDS011;31579;52.354;16.974;2023-01-25T19:34:58;84.90;;;34.70;;
45863;SDS011;31579;52.354;16.974;2023-01-25T19:39:58;84.90;;;34.70;;
45863;SDS011;31579;52.354;16.974;2023-01-25T19:44:58;104.80;;;39.10;;
45863;SDS011;31579;52.354;16.974;2023-01-25T19:49:58;104.80;;;39.10;;
45863;SDS011;31579;52.354;16.974;2023-01-25T19:57:41;94.50;;;35.40;;
45863;SDS011;31579;52.354;16.974;2023-01-25T20:02:41;115.80;;;40.70;;
45863;SDS011;31579;52.354;16.974;2023-01-25T20:07:41;115.80;;;40.70;;
45863;SDS011;31579;52.354;16.974;2023-01-25T20:12:41;112.80;;;41.40;;
45863;SDS011;31579;52.354;16.974;2023-01-25T20:17:41;112.80;;;41.40;;
45863;SDS011;31579;52.354;16.974;2023-01-25T20:22:40;109.90;;;39.90;;
45863;SDS011;31579;52.354;16.974;2023-01-25T20:27:41;109.90;;;39.90;;
45863;SDS011;31579;52.354;16.974;2023-01-25T20:32:41;111.10;;;36.70;;
45863;SDS011;31579;52.354;16.974;2023-01-25T20:37:41;111.10;;;36.70;;
45863;SDS011;31579;52.354;16.974;2023-01-25T20:42:41;108.80;;;38.80;;
45863;SDS011;31579;52.354;16.974;2023-01-25T20:47:41;108.80;;;38.80;;
45863;SDS011;31579;52.354;16.974;2023-01-25T20:52:41;133.40;;;44.00;;
45863;SDS011;31579;52.354;16.974;2023-01-25T20:57:41;133.40;;;44.00;;
45863;SDS011;31579;52.354;16.974;2023-01-25T21:02:41;102.20;;;38.60;;
45863;SDS011;31579;52.354;16.974;2023-01-25T21:07:41;102.20;;;38.60;;
45863;SDS011;31579;52.354;16.974;2023-01-25T21:12:41;113.90;;;41.10;;
45863;SDS011;31579;52.354;16.974;2023-01-25T21:17:41;113.90;;;41.10;;
45863;SDS011;31579;52.354;16.974;2023-01-25T21:22:41;129.30;;;45.20;;
45863;SDS011;31579;52.354;16.974;2023-01-25T21:27:41;129.30;;;45.20;;
45863;SDS011;31579;52.354;16.974;2023-01-25T21:32:44;108.50;;;40.40;;
45863;SDS011;31579;52.354;16.974;2023-01-25T21:37:41;108.50;;;40.40;;
45863;SDS011;31579;52.354;16.974;2023-01-25T21:42:41;95.40;;;34.90;;
45863;SDS011;31579;52.354;16.974;2023-01-25T21:47:41;95.40;;;34.90;;
45863;SDS011;31579;52.354;16.974;2023-01-25T21:52:44;109.70;;;41.20;;
45863;SDS011;31579;52.354;16.974;2023-01-25T21:57:41;109.70;;;41.20;;
45863;SDS011;31579;52.354;16.974;2023-01-25T22:02:41;115.70;;;41.80;;
45863;SDS011;31579;52.354;16.974;2023-01-25T22:07:41;115.70;;;41.80;;
45863;SDS011;31579;52.354;16.974;2023-01-25T22:09:40;115.70;;;41.80;;
45863;SDS011;31579;52.354;16.974;2023-01-25T22:14:39;114.90;;;41.00;;
45863;SDS011;31579;52.354;16.974;2023-01-25T22:19:39;114.90;;;41.00;;
45863;SDS011;31579;52.354;16.974;2023-01-25T22:24:39;95.90;;;36.20;;
45863;SDS011;31579;52.354;16.974;2023-01-25T22:31:43;111.80;;;38.70;;
45863;SDS011;31579;52.354;16.974;2023-01-25T22:36:43;111.80;;;38.70;;
45863;SDS011;31579;52.354;16.974;2023-01-25T22:41:43;206.00;;;56.90;;
45863;SDS011;31579;52.354;16.974;2023-01-25T22:42:42;206.00;;;56.90;;
45863;SDS011;31579;52.354;16.974;2023-01-25T22:47:41;206.00;;;56.90;;
45863;SDS011;31579;52.354;16.974;2023-01-25T22:54:11;119.70;;;42.40;;
45863;SDS011;31579;52.354;16.974;2023-01-25T22:59:11;119.70;;;42.40;;
45863;SDS011;31579;52.354;16.974;2023-01-25T23:04:11;187.60;;;52.70;;
45863;SDS011;31579;52.354;16.974;2023-01-25T23:09:11;187.60;;;52.70;;
45863;SDS011;31579;52.354;16.974;2023-01-25T23:14:11;143.20;;;47.30;;
45863;SDS011;31579;52.354;16.974;2023-01-25T23:19:11;143.20;;;47.30;;
45863;SDS011;31579;52.354;16.974;2023-01-25T23:24:11;201.40;;;57.60;;
45863;SDS011;31579;52.354;16.974;2023-01-25T23:30:05;201.40;;;57.60;;
45863;SDS011;31579;52.354;16.974;2023-01-25T23:35:05;156.90;;;46.90;;
45863;SDS011;31579;52.354;16.974;2023-01-25T23:40:05;156.90;;;46.90;;
45863;SDS011;31579;52.354;16.974;2023-01-25T23:45:05;126.20;;;42.60;;
45863;SDS011;31579;52.354;16.974;2023-01-25T23:50:05;126.20;;;42.60;;
45863;SDS011;31579;52.354;16.974;2023-01-25T23:55:05;139.40;;;42.00;;
